Aeroporto :
LOGIN :

Iscrizione | Disclaimer

   EN    FR    IT 

 










Sommario :    VFR   VFR Marginale   IFR   IFR Intensivo   IFR Molto Intensivo
Visibilità : 
Base nubi : 
>= 8 km
>= 3000ft
5 / 8 km
1000 / 3000 ft
1500m / 5 km
500 / 1000 ft
800 / 1500m
200 / 500 ft
< 800m
< 200 ft
Simboli :   Temporali  Nebbia  Neve Forte  Precipitazioni Forti  Vento > 20 kt
SIGMETs :   Varie  Temporali  Ghiacco  Turbolenza  Onda orograficha  Ceneri Vulcaniche







- Altitudine del aeroporto : 13 ft
- Codice IATA : CEQ
- Carte del aeroporto


LFMD - Cannes Mandelieu

ULTIMO METAR :
  • 161000Z AUTO VRB01KT CAVOK 16/04 Q1031 NOSIG

METARs OBSOLETI :
  • 160930Z AUTO VRB03KT CAVOK 14/03 Q1031 NOSIG
  • 160900Z AUTO VRB04KT CAVOK 11/03 Q1031 NOSIG
  • 160830Z AUTO VRB06KT CAVOK 09/02 Q1031 NOSIG
  • 160800Z AUTO VRB06KT CAVOK 07/02 Q1031 NOSIG
  • 160730Z AUTO VRB05KT CAVOK 05/01 Q1031 NOSIG
  • 160700Z AUTO 02005KT 320V060 CAVOK 04/01 Q1030 NOSIG

TAF TAF LFMD
Valido dal 16 a 09 ore il 17 a 09 ore UTC


160800Z 1609/1709 36006KT CAVOK
BECMG 1609/1611 16010KT
BECMG 1617/1619 36006KT
PROB40
TEMPO 1623/1709 4000 BR BKN010
ATIS : +33 4 93 48 73 23
Nessun NOTAM noto per questo aeroporto.



MetMap, La meteo Aeronautica in un colpo d'occhio ! - Copyright ORBIFLY Dicembre 2007 - Disclaimer

ORBIFLY MET'MAP TEAM :

Programmazione e sviluppo : Alexandra Zaïnal
Concezione e sviluppo : Baudouin d'Aumeries
Co-Programmazione e sviluppo : Marc-Olivier Méhu
Supporto tecnico e logistico : Manuel Goepfert
Aiuto per la traduzione : Arnaldo La Scala

Contatto : metmap@orbifly.com




FONTI E CREDITI :

   NOAA